createdAt,value
2023-02-02T00:00:20.917Z,45.20
2023-02-02T00:01:21.631Z,61.90
2023-02-02T00:02:22.398Z,69.10
2023-02-02T00:03:23.100Z,59.60
2023-02-02T00:04:23.768Z,55.00
2023-02-02T00:05:24.826Z,67.20
2023-02-02T00:06:25.156Z,62.10
2023-02-02T00:07:25.899Z,75.90
2023-02-02T00:08:26.613Z,60.10
2023-02-02T00:09:27.318Z,60.10
2023-02-02T00:10:28.027Z,58.10
2023-02-02T00:11:28.736Z,61.20
2023-02-02T00:12:29.453Z,71.90
2023-02-02T00:13:30.163Z,63.60
2023-02-02T00:14:30.881Z,74.60
2023-02-02T00:15:31.573Z,73.20
2023-02-02T00:16:32.357Z,69.50
2023-02-02T00:17:33.012Z,79.50
2023-02-02T00:18:33.764Z,79.10
2023-02-02T00:19:34.410Z,93.60
2023-02-02T00:20:35.116Z,159.30
2023-02-02T00:21:35.820Z,92.70
2023-02-02T00:22:36.535Z,91.90
2023-02-02T00:23:37.252Z,103.00
2023-02-02T00:24:37.945Z,102.10
2023-02-02T00:25:38.654Z,91.00
2023-02-02T00:26:39.396Z,103.30
2023-02-02T00:27:40.071Z,104.70
2023-02-02T00:28:40.810Z,59.40
2023-02-02T00:29:41.515Z,64.10
2023-02-02T00:30:42.258Z,60.60
2023-02-02T00:31:42.995Z,52.20
2023-02-02T00:32:43.768Z,38.90
2023-02-02T00:33:44.517Z,38.90
2023-02-02T00:34:45.154Z,50.20
2023-02-02T00:35:45.864Z,44.10
2023-02-02T00:36:46.616Z,49.70
2023-02-02T00:37:47.332Z,59.40
2023-02-02T00:38:48.038Z,52.60
2023-02-02T00:39:48.749Z,43.90
2023-02-02T00:40:49.472Z,51.40
2023-02-02T00:41:50.182Z,45.80
2023-02-02T00:42:51.282Z,54.20
2023-02-02T00:43:51.480Z,58.60
2023-02-02T00:44:52.186Z,50.30
2023-02-02T00:45:52.970Z,60.70
2023-02-02T00:46:53.642Z,52.00
2023-02-02T00:47:54.770Z,49.20
2023-02-02T00:48:55.022Z,75.40
2023-02-02T00:49:55.657Z,64.70
2023-02-02T00:50:56.365Z,80.40
2023-02-02T00:51:57.075Z,61.70
2023-02-02T00:52:58.275Z,75.40
2023-02-02T00:53:58.476Z,70.20
2023-02-02T00:54:59.185Z,75.60
2023-02-02T00:55:59.890Z,77.80
2023-02-02T00:57:00.610Z,96.60
2023-02-02T00:58:01.319Z,95.20
2023-02-02T00:59:02.031Z,79.80
2023-02-02T01:00:02.739Z,85.80
2023-02-02T01:01:03.515Z,92.60
2023-02-02T01:02:04.215Z,95.80
2023-02-02T01:03:04.897Z,89.90
2023-02-02T01:04:05.655Z,99.70
2023-02-02T01:05:06.284Z,103.00
2023-02-02T01:06:06.997Z,98.50
2023-02-02T01:07:07.708Z,95.80
2023-02-02T01:08:08.802Z,102.70
2023-02-02T01:09:09.004Z,113.40
2023-02-02T01:10:09.710Z,112.20
2023-02-02T01:11:10.416Z,115.20
2023-02-02T01:12:11.123Z,99.30
2023-02-02T01:13:12.270Z,113.10
2023-02-02T01:14:12.476Z,100.90
2023-02-02T01:15:13.187Z,118.10
2023-02-02T01:16:13.920Z,101.20
2023-02-02T01:17:14.600Z,100.70
2023-02-02T01:18:15.772Z,94.30
2023-02-02T01:19:16.025Z,93.20
2023-02-02T01:20:16.659Z,106.50
2023-02-02T01:21:17.376Z,96.80
2023-02-02T01:22:18.075Z,77.90
2023-02-02T01:23:18.823Z,84.30
2023-02-02T01:24:19.535Z,82.80
2023-02-02T01:25:20.254Z,93.60
2023-02-02T01:26:20.976Z,92.30
2023-02-02T01:27:21.653Z,90.70
2023-02-02T01:28:22.408Z,90.10
2023-02-02T01:29:23.108Z,86.00
2023-02-02T01:30:23.819Z,86.70
2023-02-02T01:31:24.556Z,82.10
2023-02-02T01:32:25.242Z,92.70
2023-02-02T01:33:25.983Z,102.70
2023-02-02T01:34:26.751Z,96.80
2023-02-02T01:35:27.387Z,107.20
2023-02-02T01:36:28.113Z,80.60
2023-02-02T01:37:28.802Z,74.00
2023-02-02T01:38:29.529Z,79.10
2023-02-02T01:39:30.236Z,83.50
2023-02-02T01:40:30.946Z,66.00
2023-02-02T01:41:31.654Z,76.80
2023-02-02T01:42:32.360Z,72.50
2023-02-02T01:43:33.298Z,70.40
2023-02-02T01:44:34.005Z,59.30
2023-02-02T01:45:34.768Z,69.50
2023-02-02T01:46:35.453Z,67.50
2023-02-02T01:47:36.134Z,69.00
2023-02-02T01:48:36.884Z,84.40
2023-02-02T01:49:37.626Z,61.30
2023-02-02T01:50:38.295Z,58.80
2023-02-02T01:51:39.000Z,60.00
2023-02-02T01:52:39.692Z,66.70
2023-02-02T01:53:40.443Z,67.20
2023-02-02T01:54:41.147Z,68.70
2023-02-02T01:55:41.878Z,73.80
2023-02-02T01:56:42.587Z,60.70
2023-02-02T01:57:43.293Z,66.60
2023-02-02T01:58:44.314Z,81.70
2023-02-02T01:59:44.537Z,74.60
2023-02-02T02:00:47.039Z,81.60
2023-02-02T02:01:45.808Z,78.80
2023-02-02T02:02:46.569Z,67.40
2023-02-02T02:03:47.244Z,93.50
2023-02-02T02:04:48.031Z,75.70
2023-02-02T02:05:48.687Z,90.50
2023-02-02T02:06:49.534Z,84.90
2023-02-02T02:07:50.242Z,81.10
2023-02-02T02:08:50.974Z,86.90
2023-02-02T02:09:51.681Z,88.30
2023-02-02T02:10:52.389Z,83.00
2023-02-02T02:11:53.100Z,97.00
2023-02-02T02:12:53.804Z,101.80
2023-02-02T02:13:54.519Z,91.50
2023-02-02T02:14:55.228Z,98.00
2023-02-02T02:15:55.936Z,99.80
2023-02-02T02:16:56.694Z,92.80
2023-02-02T02:17:57.353Z,104.60
2023-02-02T02:18:58.273Z,92.70
2023-02-02T02:19:59.027Z,98.70
2023-02-02T02:20:59.679Z,92.10
2023-02-02T02:22:00.389Z,97.10
2023-02-02T02:23:01.097Z,95.90
2023-02-02T02:24:01.819Z,99.60
2023-02-02T02:25:02.519Z,121.00
2023-02-02T02:26:03.230Z,111.80
2023-02-02T02:27:03.955Z,116.00
2023-02-02T02:28:04.668Z,118.00
2023-02-02T02:29:05.367Z,131.20
2023-02-02T02:30:06.084Z,105.70
2023-02-02T02:31:06.880Z,141.50
2023-02-02T02:32:07.602Z,127.90
2023-02-02T02:33:08.307Z,114.40
2023-02-02T02:34:09.273Z,150.10
2023-02-02T02:35:10.027Z,138.60
2023-02-02T02:36:10.663Z,154.10
2023-02-02T02:37:11.373Z,141.10
2023-02-02T02:38:12.091Z,144.60
2023-02-02T02:39:13.282Z,147.70
2023-02-02T02:40:13.489Z,154.70
2023-02-02T02:41:14.199Z,152.90
2023-02-02T02:42:14.920Z,162.50
2023-02-02T02:43:15.636Z,158.00
2023-02-02T02:44:16.341Z,162.10
2023-02-02T02:45:17.044Z,167.50
2023-02-02T02:46:17.833Z,176.00
2023-02-02T02:47:18.522Z,151.40
2023-02-02T02:48:19.235Z,172.10
2023-02-02T02:49:20.274Z,151.30
2023-02-02T02:50:20.531Z,163.10
2023-02-02T02:51:21.178Z,165.40
2023-02-02T02:52:21.880Z,157.20
2023-02-02T02:53:22.588Z,160.40
2023-02-02T02:54:23.324Z,161.20
2023-02-02T02:55:24.414Z,166.40
2023-02-02T02:56:24.689Z,160.80
2023-02-02T02:57:25.395Z,172.10
2023-02-02T02:58:26.103Z,181.60
2023-02-02T02:59:26.828Z,171.50
2023-02-02T03:00:27.524Z,160.20
2023-02-02T03:01:28.284Z,165.90
2023-02-02T03:02:29.090Z,153.90
2023-02-02T03:03:29.756Z,167.50
2023-02-02T03:04:30.472Z,165.30
2023-02-02T03:05:31.227Z,137.20
2023-02-02T03:06:31.862Z,157.90
2023-02-02T03:07:32.567Z,137.00
2023-02-02T03:08:33.290Z,155.50
2023-02-02T03:09:34.017Z,156.00
2023-02-02T03:10:34.726Z,145.70
2023-02-02T03:11:35.429Z,145.00
2023-02-02T03:12:36.148Z,132.40
2023-02-02T03:13:36.853Z,140.80
2023-02-02T03:14:37.773Z,123.40
2023-02-02T03:15:38.498Z,127.90
2023-02-02T03:16:39.197Z,140.20
2023-02-02T03:17:39.896Z,124.00
2023-02-02T03:18:40.601Z,114.00
2023-02-02T03:19:41.316Z,117.80
2023-02-02T03:20:42.083Z,94.50
2023-02-02T03:21:42.712Z,96.00
2023-02-02T03:22:43.421Z,105.60
2023-02-02T03:23:44.128Z,120.10
2023-02-02T03:24:44.845Z,111.80
2023-02-02T03:25:45.553Z,113.20
2023-02-02T03:26:46.305Z,111.40
2023-02-02T03:27:46.961Z,111.20
2023-02-02T03:28:47.667Z,104.20
2023-02-02T03:29:48.384Z,103.40
2023-02-02T03:30:49.234Z,94.00
2023-02-02T03:31:49.904Z,93.60
2023-02-02T03:32:50.611Z,89.80
2023-02-02T03:33:51.317Z,103.50
2023-02-02T03:34:52.280Z,87.30
2023-02-02T03:35:53.021Z,83.50
2023-02-02T03:36:53.650Z,74.00
2023-02-02T03:37:54.359Z,90.40
2023-02-02T03:38:55.063Z,70.30
2023-02-02T03:39:56.287Z,54.00
2023-02-02T03:40:56.492Z,65.60
2023-02-02T03:41:57.210Z,66.10
2023-02-02T03:42:57.913Z,67.10
2023-02-02T03:43:58.620Z,75.40
2023-02-02T03:44:59.342Z,60.30
2023-02-02T03:46:00.042Z,71.30
2023-02-02T03:47:00.757Z,44.00
2023-02-02T03:48:01.450Z,45.50
2023-02-02T03:49:02.155Z,55.20
2023-02-02T03:50:03.275Z,63.30
2023-02-02T03:51:03.525Z,56.30
2023-02-02T03:52:04.152Z,31.30
2023-02-02T03:53:04.855Z,39.90
2023-02-02T03:54:05.572Z,36.60
2023-02-02T03:55:06.780Z,54.10
2023-02-02T03:56:06.982Z,40.70
2023-02-02T03:57:07.689Z,56.30
2023-02-02T03:58:08.394Z,44.00
2023-02-02T03:59:09.105Z,41.20
2023-02-02T04:00:10.278Z,49.50
2023-02-02T04:01:10.489Z,39.50
2023-02-02T04:02:11.190Z,53.50
2023-02-02T04:03:11.895Z,54.40
2023-02-02T04:04:12.601Z,57.10
2023-02-02T04:05:13.784Z,39.80
2023-02-02T04:06:14.023Z,40.50
2023-02-02T04:07:14.667Z,61.40
2023-02-02T04:08:15.372Z,38.80
2023-02-02T04:09:16.080Z,52.20
2023-02-02T04:10:16.807Z,58.30
2023-02-02T04:11:17.515Z,58.40
2023-02-02T04:12:18.221Z,51.00
2023-02-02T04:13:18.934Z,46.60
2023-02-02T04:14:19.670Z,52.40
2023-02-02T04:15:20.788Z,50.00
2023-02-02T04:16:21.155Z,52.10
2023-02-02T04:17:21.825Z,54.90
2023-02-02T04:18:22.534Z,61.90
2023-02-02T04:19:23.246Z,56.20
2023-02-02T04:20:23.961Z,62.70
2023-02-02T04:21:24.712Z,61.70
2023-02-02T04:22:25.344Z,59.90
2023-02-02T04:23:26.054Z,71.90
2023-02-02T04:24:26.761Z,58.70
2023-02-02T04:25:27.673Z,65.30
2023-02-02T04:26:28.485Z,66.70
2023-02-02T04:27:29.134Z,47.40
2023-02-02T04:28:29.840Z,51.40
2023-02-02T04:29:30.551Z,59.70
2023-02-02T04:30:31.298Z,53.00
2023-02-02T04:31:31.979Z,55.50
2023-02-02T04:32:32.675Z,54.10
2023-02-02T04:33:33.382Z,65.60
2023-02-02T04:34:34.100Z,71.00
2023-02-02T04:35:35.279Z,66.50
2023-02-02T04:36:35.531Z,57.50
2023-02-02T04:37:36.162Z,72.20
2023-02-02T04:38:36.867Z,74.70
2023-02-02T04:39:37.588Z,62.10
2023-02-02T04:40:38.779Z,62.60
2023-02-02T04:41:38.984Z,78.80
2023-02-02T04:42:39.691Z,77.20
2023-02-02T04:43:40.409Z,82.10
2023-02-02T04:44:41.101Z,91.20
2023-02-02T04:45:42.377Z,82.30
2023-02-02T04:46:42.570Z,91.40
2023-02-02T04:47:43.283Z,105.70
2023-02-02T04:48:43.997Z,100.90
2023-02-02T04:49:44.699Z,106.40
2023-02-02T04:50:45.417Z,92.60
2023-02-02T04:51:46.188Z,111.70
2023-02-02T04:52:46.861Z,119.00
2023-02-02T04:53:47.568Z,136.00
2023-02-02T04:54:48.278Z,147.60
2023-02-02T04:55:49.028Z,145.80
2023-02-02T04:56:49.705Z,170.30
2023-02-02T04:57:50.417Z,179.30
2023-02-02T04:58:51.117Z,187.70
2023-02-02T04:59:51.827Z,188.40
2023-02-02T05:00:52.561Z,209.30
2023-02-02T05:01:53.251Z,204.00
2023-02-02T05:02:53.957Z,208.80
2023-02-02T05:03:54.670Z,219.70
2023-02-02T05:04:55.373Z,209.10
2023-02-02T05:05:56.091Z,225.00
2023-02-02T05:06:56.852Z,230.50
2023-02-02T05:07:57.483Z,250.60
2023-02-02T05:08:58.190Z,254.80
2023-02-02T05:09:58.900Z,253.20
2023-02-02T05:10:59.636Z,264.10
2023-02-02T05:12:00.346Z,293.40
2023-02-02T05:13:01.059Z,284.20
2023-02-02T05:14:01.826Z,299.30
2023-02-02T05:15:02.524Z,292.40
2023-02-02T05:16:03.253Z,300.30
2023-02-02T05:17:03.950Z,297.10
2023-02-02T05:18:04.661Z,301.00
2023-02-02T05:19:05.388Z,315.00
2023-02-02T05:20:06.090Z,315.70
2023-02-02T05:21:07.284Z,322.60
2023-02-02T05:22:07.539Z,328.40
2023-02-02T05:23:08.199Z,307.60
2023-02-02T05:24:08.910Z,326.70
2023-02-02T05:25:09.628Z,329.40
2023-02-02T05:26:10.331Z,304.30
2023-02-02T05:27:11.043Z,326.20
2023-02-02T05:28:11.750Z,301.80
2023-02-02T05:29:12.458Z,333.40
2023-02-02T05:30:13.173Z,310.30
2023-02-02T05:31:14.390Z,326.10
2023-02-02T05:32:14.538Z,282.20
2023-02-02T05:33:15.247Z,296.60
2023-02-02T05:34:15.956Z,303.90
2023-02-02T05:35:16.670Z,279.90
2023-02-02T05:36:17.387Z,263.00
2023-02-02T05:37:18.141Z,298.20
2023-02-02T05:38:18.831Z,263.90
2023-02-02T05:39:19.536Z,270.60
2023-02-02T05:40:20.247Z,256.00
2023-02-02T05:41:20.960Z,254.30
2023-02-02T05:42:21.663Z,254.40
2023-02-02T05:43:22.386Z,255.70
2023-02-02T05:44:23.090Z,228.90
2023-02-02T05:45:24.189Z,229.50
2023-02-02T05:46:24.511Z,239.90
2023-02-02T05:47:25.224Z,225.50
2023-02-02T05:48:25.933Z,221.50
2023-02-02T05:49:26.637Z,251.90
2023-02-02T05:50:27.346Z,226.10
2023-02-02T05:51:28.071Z,225.40
2023-02-02T05:52:28.829Z,221.30
2023-02-02T05:53:29.469Z,229.10
2023-02-02T05:54:30.176Z,228.40
2023-02-02T05:55:30.893Z,241.80
2023-02-02T05:56:31.788Z,237.40
2023-02-02T05:57:32.512Z,219.80
2023-02-02T05:58:33.201Z,229.30
2023-02-02T05:59:33.906Z,251.50
2023-02-02T06:00:34.612Z,210.20
2023-02-02T06:01:35.792Z,198.10
2023-02-02T06:02:35.992Z,210.40
2023-02-02T06:03:36.816Z,218.90
2023-02-02T06:04:37.501Z,224.70
2023-02-02T06:05:38.212Z,206.00
2023-02-02T06:06:38.914Z,224.20
2023-02-02T06:07:39.769Z,221.10
2023-02-02T06:08:40.408Z,199.00
2023-02-02T06:09:41.110Z,202.50
2023-02-02T06:10:41.815Z,218.20
2023-02-02T06:11:42.811Z,194.10
2023-02-02T06:12:43.020Z,211.90
2023-02-02T06:13:45.816Z,206.80
2023-02-02T06:14:44.695Z,200.40
2023-02-02T06:15:45.443Z,201.40
2023-02-02T06:16:46.161Z,197.20
2023-02-02T06:17:46.875Z,199.00
2023-02-02T06:18:47.578Z,212.50
2023-02-02T06:19:48.298Z,189.30
2023-02-02T06:20:49.010Z,199.90
2023-02-02T06:21:49.717Z,217.70
2023-02-02T06:22:50.468Z,206.30
2023-02-02T06:23:51.103Z,202.90
2023-02-02T06:24:51.811Z,205.30
2023-02-02T06:25:52.519Z,200.80
2023-02-02T06:26:53.307Z,195.90
2023-02-02T06:27:53.959Z,190.50
2023-02-02T06:28:54.675Z,194.60
2023-02-02T06:29:55.372Z,214.50
2023-02-02T06:30:56.183Z,195.90
2023-02-02T06:31:56.954Z,206.00
2023-02-02T06:32:57.650Z,209.10
2023-02-02T06:33:58.359Z,205.00
2023-02-02T06:34:59.070Z,223.80
2023-02-02T06:35:59.781Z,198.80
2023-02-02T06:37:00.515Z,192.40
2023-02-02T06:38:01.278Z,246.60
2023-02-02T06:39:01.917Z,229.70
2023-02-02T06:40:02.635Z,221.40
2023-02-02T06:41:03.339Z,254.00
2023-02-02T06:42:20.081Z,225.40
2023-02-02T06:43:05.666Z,216.50
2023-02-02T06:44:05.378Z,220.50
2023-02-02T06:45:06.101Z,218.90
2023-02-02T06:46:06.840Z,212.50
2023-02-02T06:47:07.557Z,213.90
2023-02-02T06:48:08.267Z,210.20
2023-02-02T06:49:08.981Z,232.90
2023-02-02T06:50:09.695Z,234.20
2023-02-02T06:51:10.401Z,198.00
2023-02-02T06:52:11.117Z,232.10
2023-02-02T06:53:11.873Z,226.90
2023-02-02T06:54:12.542Z,225.60
2023-02-02T06:55:13.252Z,231.80
2023-02-02T06:56:13.955Z,235.60
2023-02-02T06:57:14.668Z,210.70
2023-02-02T06:58:15.374Z,229.40
2023-02-02T06:59:16.088Z,252.90
2023-02-02T07:00:17.312Z,237.10
2023-02-02T07:01:17.664Z,214.80
2023-02-02T07:02:18.418Z,231.40
2023-02-02T07:03:19.067Z,227.30
2023-02-02T07:04:19.773Z,209.30
2023-02-02T07:05:20.480Z,227.50
2023-02-02T07:06:21.185Z,217.10
2023-02-02T07:07:22.292Z,211.30
2023-02-02T07:08:22.544Z,225.60
2023-02-02T07:09:23.190Z,212.00
2023-02-02T07:11:15.632Z,198.70
2023-02-02T07:11:25.487Z,214.90
2023-02-02T07:12:25.347Z,218.00
2023-02-02T07:13:26.067Z,221.10
2023-02-02T07:14:26.771Z,203.80
2023-02-02T07:15:27.482Z,210.10
2023-02-02T07:16:28.186Z,239.80
2023-02-02T07:17:28.902Z,230.30
2023-02-02T07:18:29.615Z,221.60
2023-02-02T07:19:30.383Z,227.30
2023-02-02T07:20:31.029Z,225.10
2023-02-02T07:21:31.745Z,216.30
2023-02-02T07:22:32.455Z,219.90
2023-02-02T07:23:33.203Z,248.70
2023-02-02T07:24:33.843Z,238.50
2023-02-02T07:25:34.553Z,221.60
2023-02-02T07:26:35.285Z,212.60
2023-02-02T07:27:36.291Z,223.10
2023-02-02T07:28:36.499Z,233.70
2023-02-02T07:29:37.205Z,240.90
2023-02-02T07:30:37.973Z,206.00
2023-02-02T07:31:38.661Z,230.10
2023-02-02T07:32:39.335Z,216.20
2023-02-02T07:33:40.045Z,223.90
2023-02-02T07:34:40.771Z,223.90
2023-02-02T07:35:41.457Z,223.90
2023-02-02T07:36:42.167Z,221.00
2023-02-02T07:37:42.881Z,241.90
2023-02-02T07:38:43.638Z,218.50
2023-02-02T07:39:44.280Z,227.30
2023-02-02T07:40:44.983Z,239.70
2023-02-02T07:41:45.695Z,247.30
2023-02-02T07:42:46.547Z,273.70
2023-02-02T07:43:47.194Z,241.90
2023-02-02T07:44:47.884Z,242.50
2023-02-02T07:45:48.595Z,237.30
2023-02-02T07:46:49.459Z,231.80
2023-02-02T07:47:50.137Z,248.10
2023-02-02T07:48:50.846Z,256.90
2023-02-02T07:49:51.557Z,234.60
2023-02-02T07:50:52.263Z,242.30
2023-02-02T07:51:52.979Z,219.80
2023-02-02T07:52:53.713Z,238.90
2023-02-02T07:53:54.481Z,234.00
2023-02-02T07:55:05.388Z,228.60
2023-02-02T07:55:56.969Z,243.50
2023-02-02T07:56:56.678Z,240.30
2023-02-02T07:57:57.396Z,241.60
2023-02-02T07:58:58.102Z,241.20
2023-02-02T07:59:58.816Z,232.30
2023-02-02T08:00:59.566Z,228.70
2023-02-02T08:02:00.320Z,230.70
2023-02-02T08:03:01.341Z,247.30
2023-02-02T08:04:01.505Z,228.30
2023-02-02T08:05:02.212Z,233.00
2023-02-02T08:06:02.921Z,236.10
2023-02-02T08:07:03.628Z,230.30
2023-02-02T08:08:04.348Z,230.20
2023-02-02T08:09:05.104Z,229.10
2023-02-02T08:10:05.745Z,223.90
2023-02-02T08:11:06.451Z,209.00
2023-02-02T08:12:07.156Z,213.70
2023-02-02T08:13:07.897Z,222.70
2023-02-02T08:14:08.622Z,228.20
2023-02-02T08:15:09.323Z,233.10
2023-02-02T08:16:10.065Z,225.30
2023-02-02T08:17:10.735Z,231.80
2023-02-02T08:18:11.452Z,235.70
2023-02-02T08:19:12.189Z,217.60
2023-02-02T08:20:12.867Z,218.90
2023-02-02T08:21:13.598Z,216.30
2023-02-02T08:22:14.293Z,218.00
2023-02-02T08:23:15.012Z,216.40
2023-02-02T08:24:15.760Z,225.10
2023-02-02T08:25:16.389Z,217.70
2023-02-02T08:26:17.248Z,228.20
2023-02-02T08:27:17.941Z,217.60
2023-02-02T08:28:18.820Z,210.00
2023-02-02T08:29:19.506Z,239.10
2023-02-02T08:30:20.300Z,229.20
2023-02-02T08:31:20.979Z,237.80
2023-02-02T08:32:21.692Z,236.50
2023-02-02T08:33:22.802Z,207.20
2023-02-02T08:34:23.007Z,232.30
2023-02-02T08:35:24.091Z,241.60
2023-02-02T08:36:24.374Z,223.70
2023-02-02T08:37:25.085Z,226.40
2023-02-02T08:38:25.805Z,226.50
2023-02-02T08:39:26.563Z,224.60
2023-02-02T08:40:27.293Z,222.30
2023-02-02T08:41:27.957Z,216.80
2023-02-02T08:42:28.665Z,227.80
2023-02-02T08:43:29.383Z,219.40
2023-02-02T08:44:44.904Z,219.50
2023-02-02T08:46:04.328Z,236.80
2023-02-02T08:46:32.408Z,224.70
2023-02-02T08:47:32.077Z,229.30
2023-02-02T08:48:33.300Z,229.30
2023-02-02T08:49:33.514Z,228.70
2023-02-02T08:50:34.214Z,236.90
2023-02-02T08:51:34.921Z,228.20
2023-02-02T08:52:35.625Z,228.10
2023-02-02T08:53:36.340Z,232.50
2023-02-02T08:54:37.089Z,216.70
2023-02-02T08:55:37.732Z,216.90
2023-02-02T08:56:38.436Z,224.30
2023-02-02T08:57:39.147Z,220.40
2023-02-02T08:58:39.898Z,199.00
2023-02-02T08:59:40.609Z,217.00
2023-02-02T09:00:41.401Z,207.10
2023-02-02T09:01:42.067Z,209.30
2023-02-02T09:02:42.775Z,218.50
2023-02-02T09:03:43.799Z,205.40
2023-02-02T09:04:44.019Z,203.50
2023-02-02T09:05:44.728Z,200.30
2023-02-02T09:06:45.452Z,183.90
2023-02-02T09:07:46.146Z,202.90
2023-02-02T09:08:47.402Z,204.40
2023-02-02T09:09:47.604Z,190.70
2023-02-02T09:10:48.252Z,188.10
2023-02-02T09:11:48.969Z,180.30
2023-02-02T09:12:49.673Z,190.20
2023-02-02T09:13:50.815Z,199.50
2023-02-02T09:14:51.040Z,188.50
2023-02-02T09:15:51.731Z,203.20
2023-02-02T09:16:52.470Z,174.40
2023-02-02T09:17:53.157Z,173.80
2023-02-02T09:18:54.306Z,166.80
2023-02-02T09:19:54.517Z,184.50
2023-02-02T09:20:55.219Z,172.70
2023-02-02T09:21:55.932Z,164.30
2023-02-02T09:22:56.676Z,184.80
2023-02-02T09:23:57.828Z,164.00
2023-02-02T09:24:58.086Z,111.60
2023-02-02T09:25:58.741Z,107.30
2023-02-02T09:26:59.516Z,103.40
2023-02-02T09:28:00.196Z,101.90
2023-02-02T09:29:00.912Z,114.90
2023-02-02T09:30:01.630Z,110.70
2023-02-02T09:31:02.378Z,93.20
2023-02-02T09:32:03.085Z,98.70
2023-02-02T09:33:03.806Z,106.30
2023-02-02T09:34:04.805Z,93.10
2023-02-02T09:35:05.034Z,92.50
2023-02-02T09:36:05.777Z,96.20
2023-02-02T09:37:06.505Z,93.90
2023-02-02T09:38:07.209Z,102.20
2023-02-02T09:39:07.930Z,105.20
2023-02-02T09:40:08.676Z,108.10
2023-02-02T09:41:09.315Z,65.70
2023-02-02T09:42:10.037Z,82.60
2023-02-02T09:43:10.743Z,76.10
2023-02-02T09:44:11.803Z,70.80
2023-02-02T09:45:12.012Z,75.80
2023-02-02T09:46:12.809Z,96.10
2023-02-02T09:47:13.501Z,82.10
2023-02-02T09:48:14.213Z,66.20
2023-02-02T09:49:15.306Z,67.20
2023-02-02T09:50:15.514Z,82.70
2023-02-02T09:51:16.222Z,70.70
2023-02-02T09:52:16.930Z,71.20
2023-02-02T09:53:17.642Z,73.80
2023-02-02T09:54:18.359Z,85.20
2023-02-02T09:55:19.110Z,76.20
2023-02-02T09:56:19.750Z,68.60
2023-02-02T09:57:20.471Z,67.20
2023-02-02T09:58:21.168Z,89.40
2023-02-02T09:59:24.392Z,81.00
2023-02-02T10:00:22.787Z,73.60
2023-02-02T10:01:23.506Z,74.50
2023-02-02T10:02:24.216Z,69.10
2023-02-02T10:03:24.882Z,69.80
2023-02-02T10:04:25.600Z,79.50
2023-02-02T10:05:26.731Z,80.30
2023-02-02T10:06:27.017Z,78.50
2023-02-02T10:07:27.733Z,91.30
2023-02-02T10:08:34.652Z,69.50
2023-02-02T10:09:30.310Z,68.00
2023-02-02T10:10:30.053Z,77.30
2023-02-02T10:11:30.898Z,74.50
2023-02-02T10:12:31.591Z,72.30
2023-02-02T10:13:32.334Z,84.20
2023-02-02T10:14:33.857Z,68.10
2023-02-02T10:15:33.676Z,76.30
2023-02-02T10:16:34.331Z,79.60
2023-02-02T10:17:35.040Z,70.10
2023-02-02T10:18:35.750Z,71.10
2023-02-02T10:19:36.464Z,88.50
2023-02-02T10:20:37.187Z,75.00
2023-02-02T10:21:37.884Z,77.70
2023-02-02T10:22:38.592Z,77.20
2023-02-02T10:23:39.301Z,72.50
2023-02-02T10:24:40.847Z,82.00
2023-02-02T10:25:40.600Z,80.00
2023-02-02T10:26:41.265Z,95.10
2023-02-02T10:27:42.954Z,79.20
2023-02-02T10:28:42.922Z,71.50
2023-02-02T10:29:49.191Z,69.50
2023-02-02T10:30:45.439Z,78.50
2023-02-02T10:31:45.228Z,78.90
2023-02-02T10:32:45.944Z,86.80
2023-02-02T10:33:46.646Z,76.80
2023-02-02T10:34:47.807Z,82.60
2023-02-02T10:35:48.026Z,85.00
2023-02-02T10:36:48.731Z,77.50
2023-02-02T10:37:49.444Z,81.80
2023-02-02T10:38:50.396Z,91.00
2023-02-02T10:39:51.151Z,68.30
2023-02-02T10:40:51.863Z,85.10
2023-02-02T10:41:52.510Z,83.20
2023-02-02T10:42:53.215Z,87.20
2023-02-02T10:43:53.946Z,82.20
2023-02-02T10:44:54.660Z,95.80
2023-02-02T10:45:55.454Z,83.20
2023-02-02T10:46:56.105Z,97.00
2023-02-02T10:47:56.805Z,93.30
2023-02-02T10:48:59.260Z,102.80
2023-02-02T10:49:58.167Z,94.80
2023-02-02T10:50:58.874Z,78.50
2023-02-02T10:51:59.617Z,99.10
2023-02-02T10:53:00.370Z,79.50
2023-02-02T10:54:01.016Z,100.10
2023-02-02T10:55:04.133Z,95.70
2023-02-02T10:56:02.758Z,86.50
2023-02-02T10:57:03.390Z,90.50
2023-02-02T10:58:04.090Z,96.30
2023-02-02T10:59:04.834Z,84.70
2023-02-02T11:00:05.846Z,94.90
2023-02-02T11:01:06.145Z,99.50
2023-02-02T11:02:20.109Z,88.90
2023-02-02T11:03:08.515Z,87.10
2023-02-02T11:04:08.196Z,92.60
2023-02-02T11:05:09.339Z,94.20
2023-02-02T11:06:09.552Z,95.90
2023-02-02T11:07:10.276Z,113.80
2023-02-02T11:08:10.983Z,106.10
2023-02-02T11:09:11.693Z,97.70
2023-02-02T11:10:12.430Z,89.90
2023-02-02T11:11:13.186Z,98.30
2023-02-02T11:12:13.834Z,105.10
2023-02-02T11:13:14.720Z,108.90
2023-02-02T11:14:15.428Z,106.60
2023-02-02T11:15:16.175Z,103.80
2023-02-02T11:16:16.915Z,97.80
2023-02-02T11:17:17.589Z,96.20
2023-02-02T11:18:18.302Z,100.50
2023-02-02T11:19:19.010Z,111.10
2023-02-02T11:20:19.731Z,84.40
2023-02-02T11:21:20.450Z,93.90
2023-02-02T11:22:21.137Z,104.20
2023-02-02T11:23:21.842Z,86.10
2023-02-02T11:24:22.554Z,93.60
2023-02-02T11:25:23.275Z,110.00
2023-02-02T11:26:24.064Z,108.30
2023-02-02T11:27:24.716Z,96.50
2023-02-02T11:28:25.431Z,109.60
2023-02-02T11:29:26.130Z,100.90
2023-02-02T11:30:27.825Z,93.90
2023-02-02T11:31:27.627Z,98.80
2023-02-02T11:32:28.320Z,103.10
2023-02-02T11:33:29.046Z,129.10
2023-02-02T11:34:29.750Z,107.80
2023-02-02T11:35:30.822Z,91.80
2023-02-02T11:36:31.796Z,79.10
2023-02-02T11:37:34.799Z,94.60
2023-02-02T11:38:32.513Z,87.00
2023-02-02T11:39:33.213Z,101.20
2023-02-02T11:40:33.984Z,97.30
2023-02-02T11:41:34.732Z,94.60
2023-02-02T11:42:35.392Z,71.70
2023-02-02T11:43:36.103Z,82.90
2023-02-02T11:44:36.815Z,78.00
2023-02-02T11:45:37.808Z,79.00
2023-02-02T11:46:38.095Z,99.30
2023-02-02T11:47:38.796Z,82.40
2023-02-02T11:48:39.508Z,76.10
2023-02-02T11:49:40.229Z,82.20
2023-02-02T11:50:40.997Z,83.50
2023-02-02T11:51:41.702Z,74.40
2023-02-02T11:52:42.394Z,71.30
2023-02-02T11:53:43.106Z,95.30
2023-02-02T11:54:43.811Z,91.70
2023-02-02T11:55:44.530Z,97.50
2023-02-02T11:56:45.275Z,76.20
2023-02-02T11:57:45.901Z,94.30
2023-02-02T11:58:46.612Z,91.20
2023-02-02T11:59:47.331Z,81.30
2023-02-02T12:00:48.313Z,100.50
2023-02-02T12:01:48.540Z,80.30
2023-02-02T12:02:49.232Z,94.20
2023-02-02T12:03:50.021Z,86.80
2023-02-02T12:04:50.727Z,106.90
2023-02-02T12:05:51.432Z,94.50
2023-02-02T12:06:52.151Z,88.30
2023-02-02T12:07:52.847Z,81.00
2023-02-02T12:08:53.560Z,76.80
2023-02-02T12:09:54.270Z,93.00
2023-02-02T12:10:55.313Z,85.80
2023-02-02T12:11:55.566Z,79.10
2023-02-02T12:12:56.198Z,79.30
2023-02-02T12:13:56.907Z,79.60
2023-02-02T12:14:57.616Z,71.10
2023-02-02T12:15:58.938Z,71.30
2023-02-02T12:16:59.106Z,73.90
2023-02-02T12:17:59.811Z,87.90
2023-02-02T12:19:00.529Z,85.30
2023-02-02T12:20:01.273Z,67.60
2023-02-02T12:21:02.314Z,65.70
2023-02-02T12:22:02.529Z,66.30
2023-02-02T12:23:03.242Z,75.70
2023-02-02T12:24:03.946Z,86.40
2023-02-02T12:25:04.671Z,84.60
2023-02-02T12:26:05.813Z,73.40
2023-02-02T12:27:06.074Z,73.50
2023-02-02T12:28:06.723Z,75.40
2023-02-02T12:29:07.430Z,76.20
2023-02-02T12:30:08.136Z,69.00
2023-02-02T12:31:09.390Z,74.70
2023-02-02T12:32:09.551Z,76.20
2023-02-02T12:33:10.263Z,67.80
2023-02-02T12:34:12.000Z,66.80
2023-02-02T12:35:11.733Z,62.30
2023-02-02T12:36:12.457Z,85.80
2023-02-02T12:37:13.163Z,58.90
2023-02-02T12:38:13.872Z,67.40
2023-02-02T12:39:14.576Z,60.40
2023-02-02T12:40:15.301Z,59.20
2023-02-02T12:41:16.333Z,73.30
2023-02-02T12:42:16.613Z,61.70
2023-02-02T12:43:17.245Z,61.60
2023-02-02T12:44:17.955Z,63.20
2023-02-02T12:45:18.665Z,67.70
2023-02-02T12:46:19.892Z,67.70
2023-02-02T12:47:20.088Z,59.60
2023-02-02T12:48:20.797Z,67.00
2023-02-02T12:49:21.509Z,61.00